Decoded Metar for K96D ( in ) (IATA:) | Meteo·Mobile Aviation Weather
aviador You're here:

K96D Decoded Metar

in
Report Time2019-02-16 17:35:00
UTC Time2019-02-16 17:37:42
Flight Rules vfr VFR
Wind330° at 03 kt
W.Rank330° ranks 2
Current wind is below 330° avg. (10.8)
Visibility9999 m
Phenomena:N/A
Clouds:N/A
Expected CloudBase > 1,200 ft AGL from Temp-Dew spread
CeilingNone
Temp-19°C
Dew Point-22°C (77% RH)
AAT-23.7°C
QNH1021 hPa
Raw Report
K96D 161735Z AUTO 33003KT 10SM M19/M22 A3015 RMK AO2=

Extra information for K96D:More info

Social comments